Time;durP1;ratioP1;P1;durP2;ratioP2;P2;SDS_P1;SDS_P2;PMS_P1;PMS_P2;Temp;Humidity;BMP_temperature;BMP_pressure;BME280_temperature;BME280_humidity;BME280_pressure;Samples;Min_cycle;Max_cycle;Signal;HPM_P1;HPM_P2
2023/01/15 00:00:58;;;;;;;;;;;;;;;5.70;69.91;95608.94;5112999;28;1055;-52
2023/01/15 00:03:24;;;;;;;;;;;;;;;5.71;69.21;95594.69;5114094;28;1007;-53
2023/01/15 00:05:50;;;;;;;;;;;;;;;5.70;68.58;95603.66;5114011;28;1039;-52
2023/01/15 00:08:16;;;;;;;;;;;;;;;5.68;68.33;95603.75;5113912;28;1126;-52
2023/01/15 00:10:42;;;;;;;;;;;;;;;5.70;68.61;95598.34;5113967;28;1007;-52
2023/01/15 00:13:08;;;;;;;;;;;;;;;5.70;68.38;95599.19;5114000;28;1986;-53
2023/01/15 00:15:34;;;;;;;;;;;;;;;5.61;69.33;95600.72;5113893;28;1063;-53
2023/01/15 00:18:01;;;;;;;;;;;;;;;5.62;69.00;95609.56;5113927;28;997;-53
2023/01/15 00:20:27;;;;;;;;;;;;;;;5.60;68.51;95617.63;5113895;28;1028;-53
2023/01/15 00:22:53;;;;;;;;;;;;;;;5.62;68.95;95617.50;5113813;28;1040;-52
2023/01/15 00:28:04;;;;;;;;;;;;;;;5.64;68.74;95623.53;5113769;28;1019;-52
2023/01/15 00:30:30;;;;;;;;;;;;;;;5.65;68.83;95626.06;5113758;28;1055;-52
2023/01/15 00:32:57;;;;;;;;;;;;;;;5.62;68.97;95623.66;5113687;28;1926;-52
2023/01/15 00:35:24;;;;;;;;;;;;;;;5.58;69.02;95614.25;5113644;28;1102;-52
2023/01/15 00:37:50;;;;;;;;;;;;;;;5.67;68.10;95625.94;5113639;28;1087;-52
2023/01/15 00:40:18;;;;;;;;;;;;;;;5.54;68.90;95617.25;5113692;28;1091;-52
2023/01/15 00:42:44;;;;;;;;;;;;;;;5.59;68.96;95612.44;5113672;28;1031;-52
2023/01/15 00:45:11;;;;;;;;;;;;;;;5.68;68.69;95615.22;5113538;28;1192;-52
2023/01/15 00:47:41;;;;;;;;;;;;;;;5.57;70.08;95609.88;5113684;28;979;-53
2023/01/15 00:50:09;;;;;;;;;;;;;;;5.66;69.17;95617.13;5113451;28;1052;-52
2023/01/15 00:52:35;;;;;;;;;;;;;;;5.70;68.08;95608.94;5113780;28;1007;-52
2023/01/15 00:55:01;;;;;;;;;;;;;;;5.72;67.92;95601.72;5113246;28;1985;-52
2023/01/15 00:57:28;;;;;;;;;;;;;;;5.68;68.29;95599.28;5113492;28;1023;-52
2023/01/15 00:59:54;;;;;;;;;;;;;;;5.64;68.27;95602.31;5113513;28;952;-53
2023/01/15 01:02:20;;;;;;;;;;;;;;;5.66;68.36;95608.34;5113588;28;1038;-52
2023/01/15 01:04:46;;;;;;;;;;;;;;;5.66;68.40;95606.53;5113484;28;1210;-53
2023/01/15 01:07:12;;;;;;;;;;;;;;;5.64;68.62;95611.09;5114477;28;1275;-53
2023/01/15 01:09:38;;;;;;;;;;;;;;;5.65;68.14;95598.69;5117267;28;1138;-52
2023/01/15 01:12:04;;;;;;;;;;;;;;;5.71;68.17;95605.31;5117299;28;968;-52
2023/01/15 01:14:30;;;;;;;;;;;;;;;5.72;67.93;95596.41;5117126;28;1918;-52
2023/01/15 01:16:57;;;;;;;;;;;;;;;5.62;68.78;95597.13;5117024;28;1071;-52
2023/01/15 01:19:23;;;;;;;;;;;;;;;5.66;69.05;95598.56;5117138;28;1592;-52
2023/01/15 01:21:50;;;;;;;;;;;;;;;5.71;68.30;95589.41;5117108;28;956;-52
2023/01/15 01:24:21;;;;;;;;;;;;;;;5.77;67.85;95599.56;5116816;28;1178;-52
2023/01/15 01:26:47;;;;;;;;;;;;;;;5.74;67.79;95600.63;5117106;28;956;-52
2023/01/15 01:29:15;;;;;;;;;;;;;;;5.75;68.11;95593.50;5116870;28;1255;-53
2023/01/15 01:31:41;;;;;;;;;;;;;;;5.75;67.23;95599.66;5116937;28;951;-53
2023/01/15 01:34:07;;;;;;;;;;;;;;;5.66;67.64;95590.59;5116592;28;2004;-52
2023/01/15 01:36:37;;;;;;;;;;;;;;;5.68;67.61;95591.31;5117044;27;1549;-53
2023/01/15 01:39:05;;;;;;;;;;;;;;;5.67;68.25;95596.75;5117033;28;960;-53
2023/01/15 01:41:31;;;;;;;;;;;;;;;5.68;68.22;95598.44;5116644;28;1062;-53
2023/01/15 01:44:01;;;;;;;;;;;;;;;5.63;68.78;95596.16;5116598;28;987;-52
2023/01/15 01:46:32;;;;;;;;;;;;;;;5.66;67.57;95598.56;5116545;28;1023;-52
2023/01/15 01:49:01;;;;;;;;;;;;;;;5.61;67.33;95590.13;5116683;28;995;-52
2023/01/15 01:51:30;;;;;;;;;;;;;;;5.64;68.28;95595.19;5116454;28;1137;-52
2023/01/15 01:53:57;;;;;;;;;;;;;;;5.68;68.11;95601.09;5116376;28;1909;-53
2023/01/15 01:56:23;;;;;;;;;;;;;;;5.70;68.33;95598.34;5116467;28;999;-53
2023/01/15 01:58:52;;;;;;;;;;;;;;;5.71;67.94;95602.66;5116070;28;1007;-52
2023/01/15 02:01:19;;;;;;;;;;;;;;;5.73;67.63;95596.28;5116246;28;1103;-52
2023/01/15 02:03:45;;;;;;;;;;;;;;;5.74;67.54;95597.13;5116457;28;976;-53
2023/01/15 02:06:13;;;;;;;;;;;;;;;5.71;67.81;95594.69;5116171;28;1087;-52
2023/01/15 02:08:39;;;;;;;;;;;;;;;5.74;67.11;95590.00;5116179;28;1027;-52
2023/01/15 02:11:06;;;;;;;;;;;;;;;5.76;66.86;95592.53;5116165;28;1031;-53
2023/01/15 02:13:45;;;;;;;;;;;;;;;5.66;68.09;95597.72;5115952;27;1913;-53
2023/01/15 02:16:30;;;;;;;;;;;;;;;5.66;67.28;95595.06;5116018;28;1003;-52
2023/01/15 02:19:07;;;;;;;;;;;;;;;5.68;66.99;95583.38;5115507;28;1055;-52
2023/01/15 02:21:45;;;;;;;;;;;;;;;5.66;67.88;95579.16;5115863;28;1028;-53
2023/01/15 02:24:30;;;;;;;;;;;;;;;5.72;67.02;95575.19;5115693;28;1421;-52
2023/01/15 02:27:02;;;;;;;;;;;;;;;5.68;68.24;95583.38;5115936;28;1082;-52
2023/01/15 02:29:33;;;;;;;;;;;;;;;5.63;68.64;95572.28;5115752;28;1048;-53
2023/01/15 02:32:02;;;;;;;;;;;;;;;5.67;68.40;95579.03;5115837;28;1024;-51
2023/01/15 02:34:34;;;;;;;;;;;;;;;5.66;68.28;95576.50;5115471;28;1914;-52
2023/01/15 02:37:07;;;;;;;;;;;;;;;5.59;69.40;95584.09;5115854;28;952;-53
2023/01/15 02:39:36;;;;;;;;;;;;;;;5.58;69.39;95586.88;5115708;28;1088;-52
2023/01/15 02:42:03;;;;;;;;;;;;;;;5.56;68.68;95586.13;5115602;28;1036;-52
2023/01/15 02:44:31;;;;;;;;;;;;;;;5.63;68.95;95584.69;5115371;28;1043;-52
2023/01/15 02:46:58;;;;;;;;;;;;;;;5.61;69.29;95582.16;5115436;28;987;-52
2023/01/15 02:49:24;;;;;;;;;;;;;;;5.63;68.84;95577.59;5115226;28;1020;-52
2023/01/15 02:51:54;;;;;;;;;;;;;;;5.63;68.69;95582.91;5115507;28;952;-53
2023/01/15 02:54:21;;;;;;;;;;;;;;;5.59;68.86;95580.59;5114878;28;1975;-53
2023/01/15 02:56:48;;;;;;;;;;;;;;;5.51;69.89;95583.84;5115187;28;1071;-52
2023/01/15 02:59:19;;;;;;;;;;;;;;;5.53;69.92;95581.09;5115214;27;972;-51
2023/01/15 03:01:48;;;;;;;;;;;;;;;5.48;69.92;95584.06;5115154;28;1059;-52
2023/01/15 03:04:15;;;;;;;;;;;;;;;5.47;70.11;95588.53;5115295;28;1035;-52
2023/01/15 03:07:01;;;;;;;;;;;;;;;5.61;68.47;95584.81;5114918;28;1024;-53
2023/01/15 03:09:29;;;;;;;;;;;;;;;5.61;68.38;95587.47;5083411;27;1308;-52
2023/01/15 03:12:03;;;;;;;;;;;;;;;5.58;69.32;95590.38;5114884;28;1036;-52
2023/01/15 03:14:48;;;;;;;;;;;;;;;5.56;69.80;95589.66;5115013;28;1980;-52
2023/01/15 03:17:17;;;;;;;;;;;;;;;5.54;69.75;95586.28;5114785;28;1102;-52
2023/01/15 03:19:55;;;;;;;;;;;;;;;5.50;70.02;95576.84;5114909;28;1305;-52
2023/01/15 03:22:30;;;;;;;;;;;;;;;5.42;69.73;95585.41;5114635;28;1071;-51
2023/01/15 03:25:03;;;;;;;;;;;;;;;5.48;69.94;95584.06;5114503;28;1154;-52
2023/01/15 03:27:29;;;;;;;;;;;;;;;5.52;69.15;95584.69;5114797;28;1020;-53
2023/01/15 03:30:01;;;;;;;;;;;;;;;5.54;69.49;95582.75;5114468;28;1082;-53
2023/01/15 03:32:30;;;;;;;;;;;;;;;5.53;70.37;95578.44;5113876;28;1490;-53
2023/01/15 03:34:56;;;;;;;;;;;;;;;5.51;70.07;95578.53;5114473;28;1910;-53
2023/01/15 03:37:23;;;;;;;;;;;;;;;5.50;69.24;95579.50;5114353;28;1003;-53
2023/01/15 03:39:50;;;;;;;;;;;;;;;5.50;69.47;95571.53;5114451;28;2019;-53
2023/01/15 03:42:19;;;;;;;;;;;;;;;5.55;69.43;95576.50;5114544;28;1046;-53
2023/01/15 03:44:56;;;;;;;;;;;;;;;5.59;68.84;95580.59;5114457;27;969;-53
2023/01/15 03:47:28;;;;;;;;;;;;;;;5.52;69.55;95576.72;5114404;28;1188;-52
2023/01/15 03:50:03;;;;;;;;;;;;;;;5.54;69.66;95580.09;5114299;28;977;-52
2023/01/15 03:52:35;;;;;;;;;;;;;;;5.46;70.32;95572.75;5114351;28;1071;-52
2023/01/15 03:55:14;;;;;;;;;;;;;;;5.47;69.44;95571.78;5114017;28;1913;-52
2023/01/15 03:57:43;;;;;;;;;;;;;;;5.48;69.18;95568.16;5114152;28;961;-53
2023/01/15 04:00:15;;;;;;;;;;;;;;;5.43;69.98;95575.66;5114118;28;1857;-52
2023/01/15 04:02:43;;;;;;;;;;;;;;;5.40;70.49;95573.22;5114270;28;995;-52
2023/01/15 04:05:09;;;;;;;;;;;;;;;5.42;70.36;95572.13;5113818;28;1047;-52
2023/01/15 04:07:36;;;;;;;;;;;;;;;5.47;70.20;95574.44;5113954;28;1859;-52
2023/01/15 04:10:02;;;;;;;;;;;;;;;5.44;70.28;95561.41;5114102;28;983;-52
2023/01/15 04:12:31;;;;;;;;;;;;;;;5.47;69.47;95569.16;5113948;28;1086;-53
2023/01/15 04:14:57;;;;;;;;;;;;;;;5.48;69.26;95565.50;5113731;28;1912;-53
2023/01/15 04:17:23;;;;;;;;;;;;;;;5.52;69.27;95566.13;5113743;28;1107;-53
2023/01/15 04:19:50;;;;;;;;;;;;;;;5.50;68.58;95562.75;5113944;28;1007;-53
2023/01/15 04:22:16;;;;;;;;;;;;;;;5.43;68.65;95570.34;5113930;28;995;-52
2023/01/15 04:24:42;;;;;;;;;;;;;;;5.43;69.06;95570.34;5113782;28;1095;-52
2023/01/15 04:27:08;;;;;;;;;;;;;;;5.45;68.90;95579.88;5113809;28;1040;-52
2023/01/15 04:29:34;;;;;;;;;;;;;;;5.50;68.39;95579.50;5113654;28;1048;-52
2023/01/15 04:32:00;;;;;;;;;;;;;;;5.39;68.48;95575.03;5113787;28;1118;-52
2023/01/15 04:34:26;;;;;;;;;;;;;;;5.48;67.91;95576.13;5113821;28;1913;-53
2023/01/15 04:36:53;;;;;;;;;;;;;;;5.41;67.47;95585.53;5112555;28;929;-53
2023/01/15 04:39:19;;;;;;;;;;;;;;;5.40;68.33;95579.38;5113804;28;1040;-53
2023/01/15 04:44:34;;;;;;;;;;;;;;;5.34;67.50;95571.06;5117666;28;1122;-53
2023/01/15 04:47:00;;;;;;;;;;;;;;;5.28;68.52;95581.16;5117880;28;1015;-53
2023/01/15 04:49:26;;;;;;;;;;;;;;;5.37;68.18;95584.06;5117609;28;1075;-52
2023/01/15 04:51:52;;;;;;;;;;;;;;;5.38;67.27;95580.47;5117594;28;1693;-52
2023/01/15 04:54:19;;;;;;;;;;;;;;;5.32;67.67;95576.47;5117412;28;2000;-52
2023/01/15 04:56:46;;;;;;;;;;;;;;;5.27;67.74;95574.19;5117514;28;1024;-53
2023/01/15 04:59:13;;;;;;;;;;;;;;;5.26;68.14;95582.25;5117456;28;1043;-53
2023/01/15 05:01:40;;;;;;;;;;;;;;;5.17;68.44;95588.25;5117304;28;1039;-53
2023/01/15 05:04:06;;;;;;;;;;;;;;;5.16;69.22;95581.25;5117503;28;972;-53
2023/01/15 05:06:32;;;;;;;;;;;;;;;5.13;68.52;95577.06;5117309;28;968;-53
2023/01/15 05:08:59;;;;;;;;;;;;;;;5.07;68.03;95580.19;5117333;28;965;-52
2023/01/15 05:11:26;;;;;;;;;;;;;;;4.97;69.79;95581.81;5117135;28;1047;-52
2023/01/15 05:13:52;;;;;;;;;;;;;;;4.84;69.81;95584.56;5117363;28;2017;-53
2023/01/15 05:16:19;;;;;;;;;;;;;;;4.69;70.68;95582.09;5117175;28;1016;-53
2023/01/15 05:18:46;;;;;;;;;;;;;;;4.61;70.93;95589.78;5117081;28;1031;-53
2023/01/15 05:21:17;;;;;;;;;;;;;;;4.56;71.51;95585.78;5117224;28;936;-53
2023/01/15 05:23:43;;;;;;;;;;;;;;;4.42;72.45;95586.78;5116932;28;1164;-53
2023/01/15 05:26:09;;;;;;;;;;;;;;;4.28;73.25;95593.09;5116948;28;1847;-53
2023/01/15 05:28:35;;;;;;;;;;;;;;;4.24;73.36;95602.22;5117068;28;966;-54
2023/01/15 05:31:20;;;;;;;;;;;;;;;4.21;73.48;95600.66;5116904;27;1189;-52
2023/01/15 05:33:46;;;;;;;;;;;;;;;4.22;72.30;95588.25;5116891;28;1913;-53
2023/01/15 05:36:13;;;;;;;;;;;;;;;4.15;72.64;95594.94;5115636;28;1031;-53
2023/01/15 05:38:39;;;;;;;;;;;;;;;4.06;73.48;95599.09;5116633;28;1028;-53
2023/01/15 05:41:47;;;;;;;;;;;;;;;3.78;74.10;95585.22;5116688;28;1129;-52
2023/01/15 05:43:53;;;;;;;;;;;;;;;3.64;75.35;95591.47;5116619;28;1662;-52
2023/01/15 05:46:20;;;;;;;;;;;;;;;3.74;75.03;95593.44;5116657;28;1023;-52
2023/01/15 05:48:46;;;;;;;;;;;;;;;3.86;74.88;95600.53;5116561;28;1023;-53
2023/01/15 05:51:12;;;;;;;;;;;;;;;3.86;74.60;95600.53;5116502;28;964;-52
2023/01/15 05:53:38;;;;;;;;;;;;;;;3.80;74.87;95604.47;5115377;28;1996;-53
2023/01/15 05:56:04;;;;;;;;;;;;;;;3.65;74.96;95590.50;5116326;28;1953;-52
2023/01/15 05:58:31;;;;;;;;;;;;;;;3.63;75.24;95595.06;5116429;27;1056;-52
2023/01/15 06:00:57;;;;;;;;;;;;;;;3.64;75.18;95598.53;5116242;28;1115;-52
2023/01/15 06:03:24;;;;;;;;;;;;;;;3.79;75.14;95608.03;5116229;28;1031;-52
2023/01/15 06:05:54;;;;;;;;;;;;;;;3.90;75.59;95600.19;5116200;28;975;-51
2023/01/15 06:08:20;;;;;;;;;;;;;;;3.99;75.20;95601.34;5116137;28;1016;-52
2023/01/15 06:10:47;;;;;;;;;;;;;;;4.15;74.25;95603.72;5116296;28;1062;-53
2023/01/15 06:13:13;;;;;;;;;;;;;;;4.15;74.24;95603.72;5116032;28;1929;-53
2023/01/15 06:15:39;;;;;;;;;;;;;;;4.07;74.41;95604.28;5116038;28;967;-53
2023/01/15 06:18:05;;;;;;;;;;;;;;;3.96;75.33;95598.06;5116052;27;1051;-52
2023/01/15 06:20:34;;;;;;;;;;;;;;;4.06;75.75;95604.38;5115843;28;1055;-53
2023/01/15 06:23:00;;;;;;;;;;;;;;;4.15;74.92;95602.88;5116071;28;1043;-52
2023/01/15 06:25:26;;;;;;;;;;;;;;;4.18;75.25;95608.81;5114667;28;1379;-52
2023/01/15 06:27:52;;;;;;;;;;;;;;;4.17;75.01;95603.63;5115818;28;1100;-52
2023/01/15 06:30:18;;;;;;;;;;;;;;;4.22;73.69;95599.69;5115773;28;1094;-53
2023/01/15 06:32:44;;;;;;;;;;;;;;;4.28;73.06;95608.97;5115682;28;1010;-53
2023/01/15 06:35:11;;;;;;;;;;;;;;;4.42;74.21;95610.59;5115545;28;1909;-53
2023/01/15 06:37:37;;;;;;;;;;;;;;;4.49;74.02;95615.34;5113942;28;1031;-52
2023/01/15 06:40:04;;;;;;;;;;;;;;;4.58;72.98;95616.47;5114955;28;971;-53
2023/01/15 06:47:59;;;;;;;;;;;;;;;4.66;74.81;95622.06;5115126;28;1027;-53
2023/01/15 06:50:25;;;;;;;;;;;;;;;4.73;74.19;95624.28;5115353;28;1011;-53
2023/01/15 06:52:51;;;;;;;;;;;;;;;4.76;75.39;95624.88;5115215;28;1086;-53
2023/01/15 06:55:17;;;;;;;;;;;;;;;4.83;75.12;95617.31;5114948;28;1910;-53
2023/01/15 06:57:44;;;;;;;;;;;;;;;4.85;74.70;95618.88;5115141;28;1040;-52
2023/01/15 07:00:10;;;;;;;;;;;;;;;4.89;74.72;95623.00;5115000;28;1051;-53
2023/01/15 07:02:37;;;;;;;;;;;;;;;4.97;74.59;95617.13;5115155;28;952;-53
2023/01/15 07:05:03;;;;;;;;;;;;;;;5.04;73.65;95618.34;5115018;28;1035;-52
2023/01/15 07:07:29;;;;;;;;;;;;;;;5.06;73.58;95627.00;5115037;28;957;-53
2023/01/15 07:09:55;;;;;;;;;;;;;;;5.11;74.85;95628.50;5114846;28;988;-53
2023/01/15 07:12:22;;;;;;;;;;;;;;;5.12;73.71;95620.41;5114854;28;945;-53
2023/01/15 07:14:49;;;;;;;;;;;;;;;5.16;73.16;95621.91;5114695;27;1905;-53
2023/01/15 07:17:15;;;;;;;;;;;;;;;5.23;74.66;95624.91;5114999;27;1035;-53
2023/01/15 07:19:41;;;;;;;;;;;;;;;5.25;74.10;95615.91;5114831;28;1027;-52
2023/01/15 07:22:08;;;;;;;;;;;;;;;5.35;72.31;95620.47;5114667;28;1099;-53
2023/01/15 07:24:34;;;;;;;;;;;;;;;5.44;72.86;95619.75;5114552;28;1154;-52
2023/01/15 07:27:00;;;;;;;;;;;;;;;5.46;71.40;95624.00;5114660;28;1024;-52
2023/01/15 07:29:26;;;;;;;;;;;;;;;5.51;71.21;95626.28;5114442;28;1055;-53
2023/01/15 07:31:52;;;;;;;;;;;;;;;5.48;72.11;95622.06;5114505;28;936;-52
2023/01/15 07:34:19;;;;;;;;;;;;;;;5.58;71.70;95621.38;5113079;28;1909;-53
2023/01/15 07:36:45;;;;;;;;;;;;;;;5.66;70.26;95619.78;5114588;28;968;-52
2023/01/15 07:39:11;;;;;;;;;;;;;;;5.72;70.71;95623.78;5114313;28;1066;-52
2023/01/15 07:50:07;;;;;;;;;;;;;;;5.88;67.88;95626.09;5094280;28;1015;-51
2023/01/15 07:52:33;;;;;;;;;;;;;;;6.28;67.63;95630.06;5094064;28;987;-52
2023/01/15 07:58:57;;;;;;;;;;;;;;;9.22;56.47;95631.50;5068845;28;1129;-52
2023/01/15 08:01:23;;;;;;;;;;;;;;;10.59;52.05;95640.03;5073489;28;1979;-52
2023/01/15 08:03:49;;;;;;;;;;;;;;;12.97;46.19;95647.09;5072501;28;1078;-53
2023/01/15 08:06:15;;;;;;;;;;;;;;;15.13;41.84;95659.13;5073416;28;1075;-51
2023/01/15 08:08:41;;;;;;;;;;;;;;;16.45;38.86;95664.31;5073191;28;1023;-50
2023/01/15 08:16:38;;;;;;;;;;;;;;;14.12;40.55;95657.97;5071791;28;1179;-51
2023/01/15 08:19:04;;;;;;;;;;;;;;;12.68;43.36;95643.81;5073253;28;1049;-51
2023/01/15 08:21:30;;;;;;;;;;;;;;;11.05;48.63;95630.16;5073267;28;965;-50
2023/01/15 08:23:57;;;;;;;;;;;;;;;9.75;51.65;95625.66;5073197;28;1196;-51
2023/01/15 08:26:23;;;;;;;;;;;;;;;9.16;54.26;95604.44;5073467;28;1055;-51
2023/01/15 08:28:49;;;;;;;;;;;;;;;8.69;55.90;95606.94;5073223;28;1136;-52
2023/01/15 08:31:15;;;;;;;;;;;;;;;8.56;56.56;95612.53;5073236;28;1869;-52
2023/01/15 08:33:41;;;;;;;;;;;;;;;8.19;56.39;95615.78;5073144;28;1990;-51
2023/01/15 08:36:07;;;;;;;;;;;;;;;8.21;56.79;95615.59;5073181;28;1087;-50
2023/01/15 08:38:33;;;;;;;;;;;;;;;7.97;58.26;95603.47;5072776;28;1163;-51
2023/01/15 08:41:01;;;;;;;;;;;;;;;7.85;58.50;95611.69;5073142;28;1056;-51
2023/01/15 08:43:27;;;;;;;;;;;;;;;7.63;60.37;95608.22;5073201;28;1087;-51
2023/01/15 08:45:57;;;;;;;;;;;;;;;7.93;59.78;95614.50;5073224;28;995;-51
2023/01/15 08:48:24;;;;;;;;;;;;;;;7.78;59.11;95614.06;5072955;28;1091;-50
2023/01/15 08:50:50;;;;;;;;;;;;;;;7.72;59.71;95612.75;5072698;28;1191;-50
2023/01/15 08:53:18;;;;;;;;;;;;;;;7.90;58.01;95612.97;5072931;28;1985;-51
2023/01/15 08:55:44;;;;;;;;;;;;;;;7.99;59.41;95609.50;5073043;28;980;-51
2023/01/15 08:58:10;;;;;;;;;;;;;;;8.05;57.68;95620.63;5100634;28;1211;-50
2023/01/15 09:00:36;;;;;;;;;;;;;;;8.18;57.83;95615.91;5113157;28;1086;-50
2023/01/15 09:03:02;;;;;;;;;;;;;;;8.50;56.47;95604.22;5113560;28;976;-51
2023/01/15 09:05:29;;;;;;;;;;;;;;;8.81;56.92;95604.97;5113387;28;1042;-50
2023/01/15 09:07:55;;;;;;;;;;;;;;;9.08;55.43;95606.94;5113748;28;1064;-50
2023/01/15 09:10:21;;;;;;;;;;;;;;;9.06;55.77;95600.91;5113320;28;1128;-50
2023/01/15 09:12:47;;;;;;;;;;;;;;;9.48;54.08;95600.56;5112295;28;1075;-51
2023/01/15 09:15:14;;;;;;;;;;;;;;;9.81;52.78;95603.75;5113321;28;1935;-50
2023/01/15 09:17:40;;;;;;;;;;;;;;;9.78;53.00;95598.69;5113423;28;1038;-51
2023/01/15 09:20:08;;;;;;;;;;;;;;;10.05;52.44;95595.22;5113110;28;1087;-50
2023/01/15 09:22:34;;;;;;;;;;;;;;;9.97;51.88;95593.28;5113239;28;1027;-51
2023/01/15 09:25:00;;;;;;;;;;;;;;;10.03;51.92;95580.31;5113408;28;1126;-51
2023/01/15 09:27:27;;;;;;;;;;;;;;;10.19;51.50;95585.88;5113406;28;999;-50
2023/01/15 09:29:53;;;;;;;;;;;;;;;10.49;51.29;95581.22;5114927;28;1311;-51
2023/01/15 09:32:19;;;;;;;;;;;;;;;10.85;50.33;95576.78;5116922;28;1026;-51
2023/01/15 09:34:45;;;;;;;;;;;;;;;10.93;50.63;95568.00;5116786;28;2001;-51
2023/01/15 09:37:11;;;;;;;;;;;;;;;10.94;49.90;95569.66;5116852;27;972;-50
2023/01/15 09:39:37;;;;;;;;;;;;;;;10.86;50.27;95558.91;5116632;28;1050;-51
2023/01/15 09:42:04;;;;;;;;;;;;;;;10.88;50.70;95551.56;5116680;28;1099;-51
2023/01/15 09:44:30;;;;;;;;;;;;;;;11.14;48.63;95548.94;5116705;28;1050;-50
2023/01/15 09:47:02;;;;;;;;;;;;;;;11.37;48.54;95545.78;5116782;28;955;-51
2023/01/15 09:49:46;;;;;;;;;;;;;;;11.57;49.51;95541.03;5116268;28;1082;-51
2023/01/15 09:52:21;;;;;;;;;;;;;;;11.33;49.07;95538.03;5116696;28;1136;-50
2023/01/15 09:54:54;;;;;;;;;;;;;;;11.40;49.67;95535.59;5115607;28;1906;-51
2023/01/15 09:57:22;;;;;;;;;;;;;;;11.67;49.58;95531.09;5116279;28;1222;-51
2023/01/15 09:59:49;;;;;;;;;;;;;;;11.51;47.97;95526.44;5116276;28;1079;-51
2023/01/15 10:02:18;;;;;;;;;;;;;;;11.26;48.89;95512.91;5116223;28;1016;-51
2023/01/15 10:04:47;;;;;;;;;;;;;;;11.01;49.88;95517.22;5116284;28;832;-51
2023/01/15 10:07:25;;;;;;;;;;;;;;;11.24;49.34;95511.38;5115301;28;1387;-51
2023/01/15 10:10:03;;;;;;;;;;;;;;;11.53;48.90;95503.88;5116344;28;951;-50
2023/01/15 10:12:38;;;;;;;;;;;;;;;11.63;48.94;95494.88;5115956;28;968;-50
2023/01/15 10:15:21;;;;;;;;;;;;;;;11.77;48.21;95493.47;5116207;28;1971;-50
2023/01/15 10:17:48;;;;;;;;;;;;;;;11.39;48.87;95483.03;5115884;28;1049;-50
2023/01/15 10:20:16;;;;;;;;;;;;;;;11.53;48.12;95482.47;5116003;28;1020;-50
2023/01/15 10:22:51;;;;;;;;;;;;;;;11.93;48.03;95476.63;5115821;28;968;-50
2023/01/15 10:25:23;;;;;;;;;;;;;;;12.10;48.22;95459.59;5115886;28;1094;-50
2023/01/15 10:27:50;;;;;;;;;;;;;;;12.05;47.46;95456.59;5115588;28;1195;-50
2023/01/15 10:30:23;;;;;;;;;;;;;;;12.19;48.44;95458.63;5115856;28;985;-50
2023/01/15 10:32:57;;;;;;;;;;;;;;;12.40;46.89;95455.50;5115757;28;1074;-51
2023/01/15 10:35:30;;;;;;;;;;;;;;;12.35;47.58;95446.25;5115350;28;1990;-50
2023/01/15 10:38:05;;;;;;;;;;;;;;;12.66;46.21;95443.81;5115579;28;1411;-51
2023/01/15 10:40:58;;;;;;;;;;;;;;;12.50;47.17;95431.19;5115216;28;1044;-51
2023/01/15 10:43:41;;;;;;;;;;;;;;;12.45;46.92;95429.03;5115361;28;1023;-51
2023/01/15 10:46:11;;;;;;;;;;;;;;;12.09;47.44;95421.25;5115301;28;1016;-50
2023/01/15 10:48:40;;;;;;;;;;;;;;;11.91;47.84;95416.03;5115169;28;1206;-50
2023/01/15 10:51:12;;;;;;;;;;;;;;;11.84;46.13;95417.63;5115452;28;984;-49
2023/01/15 10:53:45;;;;;;;;;;;;;;;11.75;47.87;95407.06;5115207;28;2016;-51
2023/01/15 10:56:16;;;;;;;;;;;;;;;12.17;48.45;95404.34;5115296;28;1078;-50
2023/01/15 10:58:46;;;;;;;;;;;;;;;12.43;46.69;95404.22;5114738;28;1107;-50
2023/01/15 11:01:15;;;;;;;;;;;;;;;11.91;47.60;95402.63;5115419;28;969;-50
2023/01/15 11:03:42;;;;;;;;;;;;;;;11.49;49.73;95390.03;5114972;28;1106;-51
2023/01/15 11:06:19;;;;;;;;;;;;;;;11.84;47.79;95382.81;5115035;28;1031;-50
2023/01/15 11:08:50;;;;;;;;;;;;;;;11.30;49.28;95382.25;5114684;28;1154;-50
2023/01/15 11:20:24;;;;;;;;;;;;;;;11.44;49.85;95368.28;5114946;28;995;-50
2023/01/15 11:22:50;;;;;;;;;;;;;;;11.16;51.17;95367.66;5114616;28;917;-51
2023/01/15 11:25:27;;;;;;;;;;;;;;;11.46;48.90;95365.44;5114647;28;1134;-49
2023/01/15 11:27:53;;;;;;;;;;;;;;;11.71;49.25;95353.81;5114691;28;1111;-50
2023/01/15 11:30:30;;;;;;;;;;;;;;;11.90;48.81;95360.75;5113718;28;1345;-50
2023/01/15 11:32:58;;;;;;;;;;;;;;;11.84;50.34;95350.66;5114332;28;1032;-52
2023/01/15 11:35:24;;;;;;;;;;;;;;;12.00;49.11;95346.38;5114356;28;2000;-51
2023/01/15 11:38:00;;;;;;;;;;;;;;;11.47;49.45;95351.88;5114484;28;1044;-51
2023/01/15 11:40:26;;;;;;;;;;;;;;;10.90;51.79;95340.91;5114417;28;959;-51
2023/01/15 11:51:33;;;;;;;;;;;;;;;10.35;53.74;95320.66;5113374;28;1183;-52
2023/01/15 11:54:02;;;;;;;;;;;;;;;10.13;55.22;95316.59;5114223;28;1902;-51
2023/01/15 11:56:30;;;;;;;;;;;;;;;9.91;54.82;95316.09;5114167;28;1040;-51
2023/01/15 11:58:57;;;;;;;;;;;;;;;9.88;56.03;95307.53;5113968;28;1894;-52
2023/01/15 12:01:30;;;;;;;;;;;;;;;10.18;54.99;95311.63;5113714;28;1087;-51
2023/01/15 12:03:57;;;;;;;;;;;;;;;10.83;52.79;95302.41;5114097;28;1035;-51
2023/01/15 12:06:25;;;;;;;;;;;;;;;11.07;51.59;95304.38;5114184;28;972;-51
2023/01/15 12:09:07;;;;;;;;;;;;;;;10.58;51.82;95302.25;5113710;27;1074;-50
2023/01/15 12:11:33;;;;;;;;;;;;;;;10.74;51.63;95291.69;5113658;28;1147;-51
2023/01/15 12:14:11;;;;;;;;;;;;;;;11.04;50.64;95305.53;5113969;28;1992;-50
2023/01/15 12:16:49;;;;;;;;;;;;;;;10.94;50.77;95300.28;5113981;28;1019;-51
2023/01/15 12:19:25;;;;;;;;;;;;;;;10.53;51.83;95294.72;5114031;28;1110;-51
2023/01/15 12:22:01;;;;;;;;;;;;;;;10.71;51.66;95297.34;5113692;28;1106;-51
2023/01/15 12:24:36;;;;;;;;;;;;;;;10.62;51.42;95281.41;5113672;28;1210;-51
2023/01/15 12:27:05;;;;;;;;;;;;;;;10.89;51.74;95285.75;5114039;28;1059;-51
2023/01/15 12:29:38;;;;;;;;;;;;;;;11.00;52.97;95279.25;5113860;28;1038;-50
2023/01/15 12:32:08;;;;;;;;;;;;;;;11.20;52.37;95271.81;5113666;28;1101;-51
2023/01/15 12:34:47;;;;;;;;;;;;;;;11.24;52.28;95265.97;5113623;28;1910;-51
2023/01/15 12:37:33;;;;;;;;;;;;;;;11.34;52.13;95265.81;5113710;28;1092;-51
2023/01/15 12:40:05;;;;;;;;;;;;;;;11.30;51.79;95259.13;5103123;28;1826;-51
2023/01/15 12:45:20;;;;;;;;;;;;;;;11.50;52.13;95270.41;5113588;28;1047;-51
2023/01/15 12:48:05;;;;;;;;;;;;;;;11.55;51.45;95265.38;5113639;28;1110;-51
2023/01/15 12:50:48;;;;;;;;;;;;;;;11.34;51.61;95260.47;5113705;28;1025;-51
2023/01/15 12:53:18;;;;;;;;;;;;;;;11.34;51.72;95257.78;5112291;28;1233;-51
2023/01/15 12:55:50;;;;;;;;;;;;;;;11.43;52.48;95248.78;5113615;28;1978;-51
2023/01/15 12:58:27;;;;;;;;;;;;;;;11.57;52.11;95254.50;5113443;28;1103;-50
2023/01/15 13:00:59;;;;;;;;;;;;;;;11.29;49.92;95246.75;5113542;28;1020;-50
2023/01/15 13:03:29;;;;;;;;;;;;;;;10.96;49.16;95251.97;5114941;28;956;-51
2023/01/15 13:05:57;;;;;;;;;;;;;;;10.90;49.42;95249.97;5117447;28;1097;-50
2023/01/15 13:08:26;;;;;;;;;;;;;;;11.05;48.91;95250.19;5117590;28;1023;-51
2023/01/15 13:10:52;;;;;;;;;;;;;;;11.07;47.03;95248.19;5117304;28;1091;-51
2023/01/15 13:13:21;;;;;;;;;;;;;;;11.20;48.24;95237.03;5117149;28;1091;-51
2023/01/15 13:15:48;;;;;;;;;;;;;;;11.15;46.91;95248.22;5117313;28;1910;-51
2023/01/15 13:18:14;;;;;;;;;;;;;;;11.17;48.30;95245.38;5117255;28;988;-51
2023/01/15 13:20:50;;;;;;;;;;;;;;;11.08;46.43;95247.19;5117063;28;973;-51
2023/01/15 13:23:35;;;;;;;;;;;;;;;10.91;47.41;95244.44;5117025;28;1077;-51
2023/01/15 13:26:07;;;;;;;;;;;;;;;10.81;47.57;95241.03;5117121;28;1102;-51
2023/01/15 13:28:39;;;;;;;;;;;;;;;10.81;48.41;95232.19;5116978;28;968;-51
2023/01/15 13:31:12;;;;;;;;;;;;;;;10.79;47.52;95240.38;5116662;28;1090;-51
2023/01/15 13:33:46;;;;;;;;;;;;;;;10.72;49.15;95229.50;5117002;28;1914;-50
2023/01/15 13:36:15;;;;;;;;;;;;;;;10.62;48.06;95234.09;5115951;28;1030;-49
2023/01/15 13:38:42;;;;;;;;;;;;;;;10.55;47.35;95233.91;5116871;28;1020;-49
2023/01/15 13:41:09;;;;;;;;;;;;;;;10.43;47.95;95219.13;5116578;28;1299;-49
2023/01/15 13:43:45;;;;;;;;;;;;;;;10.33;48.01;95219.25;5116613;28;995;-49
2023/01/15 13:46:12;;;;;;;;;;;;;;;10.43;48.49;95223.66;5116958;28;1054;-50
2023/01/15 13:48:44;;;;;;;;;;;;;;;10.46;48.47;95226.00;5116692;28;1024;-50
2023/01/15 13:51:24;;;;;;;;;;;;;;;10.54;48.93;95218.84;5116346;28;1154;-50
2023/01/15 13:53:50;;;;;;;;;;;;;;;10.46;50.29;95208.13;5116568;28;1913;-50
2023/01/15 13:56:45;;;;;;;;;;;;;;;10.37;48.78;95208.25;5116382;28;1035;-50
2023/01/15 13:59:30;;;;;;;;;;;;;;;10.35;50.05;95211.91;5103205;27;1426;-50
2023/01/15 14:01:56;;;;;;;;;;;;;;;10.26;49.40;95207.50;5116134;28;1147;-49
2023/01/15 14:04:35;;;;;;;;;;;;;;;10.28;48.92;95210.84;5116261;28;1036;-50